Time;durP1;ratioP1;P1;durP2;ratioP2;P2;SDS_P1;SDS_P2;PMS_P1;PMS_P2;Temp;Humidity;BMP_temperature;BMP_pressure;BME280_temperature;BME280_humidity;BME280_pressure;Samples;Min_cycle;Max_cycle;Signal;HPM_P1;HPM_P2
2023/11/13 00:02:04;;;;;;;1.83;1.73;;;6.70;58.60;;;;;;5106995;27;20403;-75
2023/11/13 00:04:30;;;;;;;2.08;1.60;;;6.70;55.40;;;;;;5104410;27;20031;-75
2023/11/13 00:06:56;;;;;;;2.10;1.90;;;6.90;51.00;;;;;;5124121;27;20106;-75
2023/11/13 00:09:22;;;;;;;5.60;2.08;;;6.90;42.70;;;;;;5121074;27;20062;-75
2023/11/13 00:11:47;;;;;;;1.65;1.50;;;6.90;52.30;;;;;;5124229;27;20107;-75
2023/11/13 00:14:14;;;;;;;2.75;1.80;;;6.80;53.70;;;;;;5122442;27;20028;-76
2023/11/13 00:16:39;;;;;;;2.78;1.75;;;6.80;46.10;;;;;;5121069;27;20501;-75
2023/11/13 00:19:05;;;;;;;1.25;1.20;;;6.80;29.70;;;;;;5096982;28;20280;-75
2023/11/13 00:21:31;;;;;;;2.20;1.80;;;6.90;18.70;;;;;;5120095;27;20171;-75
2023/11/13 00:23:57;;;;;;;3.90;1.48;;;6.90;16.10;;;;;;5100376;27;20028;-75
2023/11/13 00:26:24;;;;;;;3.53;1.40;;;7.00;4.30;;;;;;5119238;27;20068;-75
2023/11/13 00:28:50;;;;;;;1.63;1.30;;;7.10;3.00;;;;;;5120022;27;20028;-75
2023/11/13 00:31:17;;;;;;;2.55;1.90;;;7.20;8.30;;;;;;5117901;27;20025;-75
2023/11/13 00:33:42;;;;;;;2.03;1.88;;;7.20;22.50;;;;;;5101471;27;20083;-75
2023/11/13 00:36:08;;;;;;;2.63;2.42;;;7.10;27.10;;;;;;5118873;27;20019;-75
2023/11/13 00:38:34;;;;;;;2.30;2.20;;;7.00;33.50;;;;;;5119046;27;20526;-75
2023/11/13 00:41:00;;;;;;;2.45;2.00;;;6.90;43.50;;;;;;5105071;27;20114;-75
2023/11/13 00:43:25;;;;;;;3.28;2.35;;;6.90;42.60;;;;;;5102384;28;20019;-75
2023/11/13 00:45:51;;;;;;;2.08;1.98;;;6.80;51.80;;;;;;5117054;27;20023;-75
2023/11/13 00:48:18;;;;;;;2.00;1.90;;;6.90;55.00;;;;;;5118350;27;20533;-75
2023/11/13 00:50:44;;;;;;;2.85;1.98;;;6.90;55.00;;;;;;5099351;28;20502;-75
2023/11/13 00:53:12;;;;;;;2.28;1.92;;;6.90;55.20;;;;;;5120714;27;20380;-75
2023/11/13 00:55:39;;;;;;;4.03;2.28;;;6.90;55.70;;;;;;5101737;27;20482;-75
2023/11/13 00:58:05;;;;;;;2.00;1.90;;;6.70;52.40;;;;;;5118199;27;20012;-75
2023/11/13 01:00:34;;;;;;;3.63;1.98;;;6.60;55.60;;;;;;5121237;27;20030;-75
2023/11/13 01:02:59;;;;;;;2.63;2.42;;;6.60;63.30;;;;;;5098331;28;20465;-75
2023/11/13 01:05:25;;;;;;;2.75;2.17;;;6.60;60.00;;;;;;5101889;28;20114;-75
2023/11/13 01:07:51;;;;;;;2.33;1.85;;;6.60;63.60;;;;;;5102773;28;20072;-75
2023/11/13 01:10:16;;;;;;;1.98;1.88;;;6.60;68.30;;;;;;5116156;28;20493;-75
2023/11/13 01:12:42;;;;;;;2.20;2.00;;;6.70;66.10;;;;;;5114501;28;20012;-75
2023/11/13 01:15:09;;;;;;;1.92;1.83;;;6.60;57.80;;;;;;5100177;28;20194;-75
2023/11/13 01:17:35;;;;;;;1.88;1.77;;;6.60;67.30;;;;;;5101316;28;20031;-76
2023/11/13 01:20:03;;;;;;;1.85;1.75;;;6.40;56.10;;;;;;5102413;28;20406;-75
2023/11/13 01:22:30;;;;;;;2.17;2.00;;;6.40;63.50;;;;;;5119102;28;20057;-74
2023/11/13 01:24:56;;;;;;;2.80;2.08;;;6.40;71.40;;;;;;5099218;28;20157;-75
2023/11/13 01:27:22;;;;;;;2.42;2.20;;;6.40;68.70;;;;;;5101367;28;20117;-76
2023/11/13 01:29:48;;;;;;;2.10;2.00;;;6.30;59.50;;;;;;5100063;28;20399;-75
2023/11/13 01:32:14;;;;;;;3.33;2.13;;;6.30;62.00;;;;;;5117942;28;20030;-75
2023/11/13 01:34:40;;;;;;;2.03;1.92;;;6.30;87.20;;;;;;5099881;28;20024;-75
2023/11/13 01:37:06;;;;;;;2.33;2.10;;;6.20;70.40;;;;;;5105909;27;20681;-75
2023/11/13 01:39:32;;;;;;;2.50;2.30;;;6.10;67.20;;;;;;5117455;27;20030;-75
2023/11/13 01:41:58;;;;;;;2.17;2.08;;;6.10;66.80;;;;;;5122632;27;20015;-75
2023/11/13 01:44:24;;;;;;;2.45;2.25;;;6.10;86.00;;;;;;5121583;27;20023;-75
2023/11/13 01:46:51;;;;;;;2.38;2.15;;;6.10;90.90;;;;;;5123100;27;20023;-75
2023/11/13 01:49:19;;;;;;;2.28;2.10;;;6.10;86.00;;;;;;5117355;27;20034;-75
2023/11/13 01:51:46;;;;;;;1.90;1.80;;;6.20;90.30;;;;;;5104150;27;20039;-75
2023/11/13 01:54:13;;;;;;;1.90;1.80;;;6.10;83.60;;;;;;5122781;27;20492;-74
2023/11/13 01:56:39;;;;;;;2.10;2.00;;;6.00;76.70;;;;;;5102822;28;20139;-75
2023/11/13 01:59:06;;;;;;;3.65;1.90;;;6.00;91.70;;;;;;5102395;27;20114;-74
2023/11/13 02:01:32;;;;;;;3.15;1.73;;;6.10;96.20;;;;;;5104172;27;20016;-75
2023/11/13 02:03:58;;;;;;;1.80;1.70;;;6.10;99.90;;;;;;5102333;27;20025;-74
2023/11/13 02:06:24;;;;;;;3.63;1.88;;;6.10;97.40;;;;;;5124153;27;20020;-75
2023/11/13 02:08:50;;;;;;;1.95;1.85;;;6.20;91.20;;;;;;5105168;27;20134;-75
2023/11/13 02:11:17;;;;;;;2.22;2.13;;;6.10;68.20;;;;;;5102100;27;20038;-75
2023/11/13 02:13:44;;;;;;;3.55;2.50;;;5.90;60.10;;;;;;5106333;27;20482;-75
2023/11/13 02:16:12;;;;;;;4.95;2.65;;;5.90;81.80;;;;;;5101947;28;20020;-75
2023/11/13 02:18:38;;;;;;;4.05;2.92;;;5.90;93.10;;;;;;5104676;27;20059;-75
2023/11/13 02:21:04;;;;;;;3.42;2.38;;;6.00;93.70;;;;;;5121498;27;20024;-75
2023/11/13 02:23:30;;;;;;;2.58;2.38;;;5.90;88.80;;;;;;5122091;27;20069;-75
2023/11/13 02:25:57;;;;;;;3.00;2.80;;;5.90;74.10;;;;;;5122698;27;20051;-75
2023/11/13 02:28:24;;;;;;;2.97;2.78;;;5.80;91.40;;;;;;5126501;27;20020;-75
2023/11/13 02:30:50;;;;;;;2.70;2.50;;;5.80;95.70;;;;;;5125621;27;20015;-75
2023/11/13 02:33:16;;;;;;;2.70;2.45;;;5.80;95.50;;;;;;5106055;27;20031;-75
2023/11/13 02:35:43;;;;;;;2.72;2.55;;;5.80;95.30;;;;;;5105977;27;20036;-75
2023/11/13 02:38:09;;;;;;;3.00;2.75;;;5.80;87.40;;;;;;5126225;27;20386;-75
2023/11/13 02:40:35;;;;;;;2.97;2.78;;;5.80;79.70;;;;;;5123177;27;20030;-75
2023/11/13 02:43:00;;;;;;;2.83;2.63;;;5.80;90.90;;;;;;5127062;27;20027;-75
2023/11/13 02:45:27;;;;;;;2.28;2.10;;;5.80;96.60;;;;;;5124544;27;20110;-75
2023/11/13 02:47:54;;;;;;;2.60;2.50;;;5.70;81.80;;;;;;5107097;27;20027;-75
2023/11/13 02:50:20;;;;;;;2.70;2.50;;;5.70;78.10;;;;;;5104387;28;20031;-75
2023/11/13 02:52:46;;;;;;;2.90;2.72;;;5.70;90.10;;;;;;5107158;27;20075;-75
2023/11/13 02:55:13;;;;;;;5.57;2.90;;;5.60;96.60;;;;;;5105720;27;20388;-76
2023/11/13 02:57:38;;;;;;;10.27;3.20;;;5.70;99.90;;;;;;5108505;27;20041;-75
2023/11/13 03:00:09;;;;;;;2.25;2.05;;;5.70;99.90;;;;;;5122900;27;20110;-75
2023/11/13 03:02:35;;;;;;;2.80;1.98;;;5.80;99.90;;;;;;5101176;27;20029;-75
2023/11/13 03:05:01;;;;;;;2.17;2.08;;;5.80;99.20;;;;;;5106170;27;20034;-75
2023/11/13 03:07:27;;;;;;;2.20;2.05;;;5.80;95.50;;;;;;5124901;27;20023;-75
2023/11/13 03:09:54;;;;;;;2.33;2.22;;;5.80;95.10;;;;;;5103759;27;20058;-75
2023/11/13 03:12:26;;;;;;;3.15;2.00;;;5.80;93.00;;;;;;5100402;27;20035;-75
2023/11/13 03:14:52;;;;;;;1.90;1.80;;;5.80;81.50;;;;;;5123946;27;20075;-75
2023/11/13 03:17:21;;;;;;;1.40;1.30;;;5.80;91.60;;;;;;5103277;28;20065;-75
2023/11/13 03:19:47;;;;;;;3.15;1.70;;;6.00;97.20;;;;;;5125549;27;20062;-75
2023/11/13 03:22:13;;;;;;;2.47;1.40;;;6.10;92.20;;;;;;5099695;27;20024;-75
2023/11/13 03:24:39;;;;;;;1.33;1.23;;;6.20;81.10;;;;;;5120783;27;20042;-75
2023/11/13 03:27:05;;;;;;;2.20;2.10;;;6.30;78.20;;;;;;5121091;27;20015;-75
2023/11/13 03:29:31;;;;;;;2.45;2.30;;;6.30;63.10;;;;;;5100295;28;20054;-75
2023/11/13 03:31:56;;;;;;;2.25;2.15;;;6.20;69.60;;;;;;5122047;27;20020;-75
2023/11/13 03:34:22;;;;;;;3.10;2.90;;;6.20;76.40;;;;;;5101087;27;20058;-75
2023/11/13 03:36:48;;;;;;;3.40;3.10;;;6.10;78.60;;;;;;5102033;27;20148;-75
2023/11/13 03:39:15;;;;;;;4.28;3.58;;;6.10;80.00;;;;;;5121200;27;20023;-75
2023/11/13 03:41:40;;;;;;;3.40;3.20;;;6.00;79.50;;;;;;5097203;27;20046;-75
2023/11/13 03:44:06;;;;;;;6.57;3.78;;;5.90;86.80;;;;;;5106068;27;20106;-75
2023/11/13 03:46:32;;;;;;;5.40;4.00;;;5.90;92.10;;;;;;5121057;27;20040;-76
2023/11/13 03:48:58;;;;;;;4.28;3.97;;;5.90;94.30;;;;;;5098844;27;20372;-75
2023/11/13 03:51:24;;;;;;;3.88;3.58;;;5.90;97.70;;;;;;5124578;27;20027;-75
2023/11/13 03:53:51;;;;;;;4.53;3.60;;;5.80;96.40;;;;;;5121033;27;20095;-75
2023/11/13 03:56:20;;;;;;;4.50;3.22;;;5.80;97.50;;;;;;5122060;27;20026;-75
2023/11/13 03:58:46;;;;;;;3.03;2.70;;;5.90;95.60;;;;;;5122797;27;20160;-75
2023/11/13 04:01:13;;;;;;;2.53;2.42;;;6.00;96.60;;;;;;5105187;28;20073;-75
2023/11/13 04:03:39;;;;;;;3.05;2.85;;;6.00;97.50;;;;;;5099180;28;20487;-75
2023/11/13 04:06:05;;;;;;;4.03;3.00;;;6.00;96.00;;;;;;5121365;27;20034;-75
2023/11/13 04:08:31;;;;;;;3.88;3.03;;;6.00;93.80;;;;;;5104525;27;20030;-75
2023/11/13 04:10:56;;;;;;;3.03;2.88;;;5.90;90.20;;;;;;5123921;27;20023;-75
2023/11/13 04:13:24;;;;;;;2.65;2.45;;;5.90;85.70;;;;;;5102825;28;20543;-75
2023/11/13 04:15:50;;;;;;;2.90;2.70;;;5.90;86.40;;;;;;5121233;27;20024;-75
2023/11/13 04:18:17;;;;;;;2.72;2.53;;;5.80;86.80;;;;;;5123238;27;20096;-75
2023/11/13 04:20:43;;;;;;;3.10;2.05;;;5.80;92.90;;;;;;5105244;27;20486;-75
2023/11/13 04:23:08;;;;;;;2.25;1.80;;;5.80;95.20;;;;;;5121262;27;20080;-75
2023/11/13 04:25:34;;;;;;;1.92;1.52;;;5.80;94.50;;;;;;5106017;27;20386;-75
2023/11/13 04:28:01;;;;;;;2.42;1.38;;;5.90;96.10;;;;;;5122096;27;20035;-75
2023/11/13 04:30:27;;;;;;;1.40;1.30;;;6.00;94.90;;;;;;5106365;27;20035;-75
2023/11/13 04:32:53;;;;;;;1.33;1.27;;;6.10;94.10;;;;;;5121538;27;20023;-75
2023/11/13 04:35:19;;;;;;;1.73;1.35;;;6.00;92.10;;;;;;5124176;27;20031;-75
2023/11/13 04:37:45;;;;;;;1.20;1.20;;;5.90;98.30;;;;;;5102996;28;20028;-75
2023/11/13 04:40:12;;;;;;;2.80;1.48;;;5.90;99.40;;;;;;5122945;27;20034;-74
2023/11/13 04:42:38;;;;;;;1.58;1.48;;;6.00;99.30;;;;;;5105686;27;20061;-75
2023/11/13 04:45:04;;;;;;;1.40;1.30;;;6.00;99.40;;;;;;5122483;27;20028;-75
2023/11/13 04:47:31;;;;;;;3.75;1.35;;;6.00;99.50;;;;;;5106795;27;20114;-75
2023/11/13 04:49:57;;;;;;;2.67;1.30;;;6.10;98.10;;;;;;5122880;27;20051;-74
2023/11/13 04:52:23;;;;;;;2.85;1.17;;;6.20;98.60;;;;;;5107461;27;20510;-75
2023/11/13 04:54:49;;;;;;;1.27;1.17;;;6.20;93.50;;;;;;5104246;28;20054;-75
2023/11/13 04:57:15;;;;;;;1.60;1.50;;;6.10;89.30;;;;;;5125155;27;20026;-74
2023/11/13 04:59:40;;;;;;;1.27;1.17;;;6.10;87.60;;;;;;5104036;28;20019;-75
2023/11/13 05:02:09;;;;;;;1.85;1.48;;;6.00;93.00;;;;;;5105613;28;20027;-75
2023/11/13 05:04:35;;;;;;;2.22;1.75;;;5.90;94.40;;;;;;5124072;27;20023;-75
2023/11/13 05:07:00;;;;;;;2.78;1.77;;;5.90;98.00;;;;;;5121810;28;20101;-76
2023/11/13 05:09:26;;;;;;;2.65;1.40;;;5.90;99.10;;;;;;5116895;27;20031;-74
2023/11/13 05:11:52;;;;;;;1.55;1.45;;;5.90;98.30;;;;;;5105753;28;20027;-75
2023/11/13 05:14:18;;;;;;;1.85;1.50;;;5.70;99.70;;;;;;5104164;28;20441;-75
2023/11/13 05:16:44;;;;;;;1.55;1.45;;;5.70;99.90;;;;;;5121504;28;20149;-75
2023/11/13 05:19:09;;;;;;;1.20;1.20;;;5.80;99.90;;;;;;5123946;28;20113;-75
2023/11/13 05:21:35;;;;;;;2.47;1.40;;;5.90;98.40;;;;;;5102597;28;20039;-76
2023/11/13 05:24:01;;;;;;;2.60;1.38;;;5.80;97.50;;;;;;5106431;28;20035;-75
2023/11/13 05:26:27;;;;;;;1.42;1.20;;;5.80;99.90;;;;;;5103720;28;20027;-75
2023/11/13 05:28:55;;;;;;;2.55;1.40;;;5.90;99.90;;;;;;5104862;28;20605;-75
2023/11/13 05:31:21;;;;;;;3.70;1.40;;;5.90;99.90;;;;;;5102242;28;20035;-75
2023/11/13 05:33:47;;;;;;;2.97;1.20;;;6.00;97.60;;;;;;5122854;28;20019;-75
2023/11/13 05:36:13;;;;;;;1.42;1.20;;;6.10;97.00;;;;;;5097345;28;20031;-75
2023/11/13 05:38:42;;;;;;;1.60;1.35;;;6.20;93.20;;;;;;5119795;28;20023;-77
2023/11/13 05:41:08;;;;;;;2.72;1.50;;;6.20;87.10;;;;;;5098537;28;20076;-75
2023/11/13 05:43:34;;;;;;;2.53;1.20;;;6.30;86.60;;;;;;5118664;28;20019;-76
2023/11/13 05:46:00;;;;;;;2.35;1.33;;;6.30;90.70;;;;;;5100288;28;20492;-75
2023/11/13 05:48:27;;;;;;;1.52;1.40;;;6.30;86.50;;;;;;5100533;28;20025;-76
2023/11/13 05:50:52;;;;;;;1.55;1.27;;;6.30;82.90;;;;;;5117477;28;20077;-75
2023/11/13 05:53:19;;;;;;;2.17;1.98;;;6.40;79.70;;;;;;5098415;28;20047;-75
2023/11/13 05:55:45;;;;;;;2.22;1.95;;;6.40;79.00;;;;;;5100616;28;20028;-75
2023/11/13 05:58:12;;;;;;;1.60;1.50;;;6.40;79.30;;;;;;5104092;28;20046;-75
2023/11/13 06:00:38;;;;;;;1.90;1.58;;;6.50;71.70;;;;;;5123518;28;20490;-75
2023/11/13 06:03:03;;;;;;;2.33;1.52;;;6.50;67.90;;;;;;5119990;28;20394;-74
2023/11/13 06:05:29;;;;;;;1.80;1.70;;;6.60;64.50;;;;;;5122589;28;20115;-75
2023/11/13 06:07:55;;;;;;;4.50;1.73;;;6.50;71.30;;;;;;5099669;28;20046;-76
2023/11/13 06:10:21;;;;;;;4.05;2.53;;;6.60;77.30;;;;;;5114701;28;20030;-76
2023/11/13 06:12:47;;;;;;;3.13;2.05;;;6.60;73.40;;;;;;5107172;28;20493;-74
2023/11/13 06:15:13;;;;;;;3.88;2.05;;;6.70;62.70;;;;;;5116386;28;20023;-75
2023/11/13 06:17:43;;;;;;;2.78;2.00;;;6.70;57.00;;;;;;5116384;28;20020;-75
2023/11/13 06:20:12;;;;;;;2.72;2.08;;;6.70;57.10;;;;;;5095207;28;20024;-75
2023/11/13 06:22:38;;;;;;;1.83;1.73;;;6.70;56.40;;;;;;5123851;27;20058;-75
2023/11/13 06:25:05;;;;;;;2.05;1.90;;;6.70;52.10;;;;;;5132768;27;20027;-75
2023/11/13 06:27:31;;;;;;;2.28;1.90;;;6.80;54.00;;;;;;5128536;27;20015;-75
2023/11/13 06:29:57;;;;;;;2.90;2.38;;;6.80;61.00;;;;;;5133698;27;20023;-75
2023/11/13 06:32:23;;;;;;;4.35;2.10;;;6.70;75.60;;;;;;5109025;28;20051;-75
2023/11/13 06:34:48;;;;;;;2.17;2.08;;;6.60;83.90;;;;;;5124285;27;20047;-75
2023/11/13 06:37:15;;;;;;;3.75;2.47;;;6.60;83.50;;;;;;5126707;27;20023;-75
2023/11/13 06:39:44;;;;;;;2.47;2.33;;;6.60;82.10;;;;;;5097529;28;20551;-75
2023/11/13 06:42:10;;;;;;;2.03;1.92;;;6.60;80.70;;;;;;5097384;28;20031;-75
2023/11/13 06:44:36;;;;;;;2.33;2.13;;;6.70;71.30;;;;;;5109341;27;20023;-75
2023/11/13 06:47:02;;;;;;;3.13;2.50;;;6.60;78.20;;;;;;5097357;28;20034;-75
2023/11/13 06:49:28;;;;;;;3.97;2.75;;;6.50;90.20;;;;;;5129630;27;20072;-75
2023/11/13 06:51:53;;;;;;;5.10;2.97;;;6.50;92.90;;;;;;5117537;27;20047;-75
2023/11/13 06:54:20;;;;;;;10.77;4.55;;;6.50;88.50;;;;;;5113193;28;20071;-75
2023/11/13 06:56:46;;;;;;;15.68;5.20;;;6.50;83.30;;;;;;5123020;27;20026;-75
2023/11/13 06:59:12;;;;;;;21.33;5.65;;;6.50;86.30;;;;;;5106553;27;20027;-75
2023/11/13 07:01:40;;;;;;;12.15;3.95;;;6.50;89.20;;;;;;5106075;27;20372;-75
2023/11/13 07:04:10;;;;;;;4.93;2.65;;;6.60;88.40;;;;;;5122922;27;20027;-75
2023/11/13 07:06:39;;;;;;;4.50;2.67;;;6.60;86.90;;;;;;5103532;27;20019;-74
2023/11/13 07:09:10;;;;;;;14.52;3.47;;;6.60;91.10;;;;;;5105475;27;20050;-75
2023/11/13 07:11:38;;;;;;;8.02;2.42;;;6.70;89.60;;;;;;5122412;27;20015;-75
2023/11/13 07:14:06;;;;;;;2.10;1.90;;;6.70;90.20;;;;;;5119628;27;20087;-75
2023/11/13 07:16:35;;;;;;;1.70;1.60;;;6.80;89.70;;;;;;5121451;27;20020;-75
2023/11/13 07:19:03;;;;;;;2.97;2.40;;;6.80;87.60;;;;;;5114126;27;20019;-75
2023/11/13 07:21:30;;;;;;;10.23;2.90;;;6.80;86.20;;;;;;5085543;27;20084;-75
2023/11/13 07:23:55;;;;;;;4.53;2.22;;;6.90;87.00;;;;;;5107100;27;20035;-75
2023/11/13 07:26:21;;;;;;;2.72;2.47;;;6.90;78.70;;;;;;5110582;28;20024;-75
2023/11/13 07:28:47;;;;;;;2.55;2.35;;;7.00;76.50;;;;;;5114673;28;20463;-75
2023/11/13 07:31:14;;;;;;;2.70;2.50;;;7.00;78.70;;;;;;5114164;28;20485;-75
2023/11/13 07:33:39;;;;;;;2.42;2.20;;;7.00;80.60;;;;;;5114331;28;20034;-75
2023/11/13 07:36:05;;;;;;;3.35;2.75;;;7.10;86.80;;;;;;5114476;28;20028;-75
2023/11/13 07:38:31;;;;;;;2.72;2.33;;;7.10;90.80;;;;;;5121353;27;20062;-75
2023/11/13 07:40:57;;;;;;;4.22;2.70;;;7.10;77.20;;;;;;5097201;28;20046;-75
2023/11/13 07:43:23;;;;;;;4.78;2.50;;;7.20;73.50;;;;;;5103341;28;20023;-75
2023/11/13 07:45:50;;;;;;;4.93;3.10;;;7.20;65.30;;;;;;5119815;27;20023;-75
2023/11/13 07:48:16;;;;;;;5.43;2.88;;;7.20;63.30;;;;;;5117911;27;20451;-74
2023/11/13 07:50:42;;;;;;;5.05;3.00;;;7.30;62.80;;;;;;5113159;27;20103;-75
2023/11/13 07:53:08;;;;;;;4.68;4.03;;;7.40;63.80;;;;;;5122637;27;20123;-75
2023/11/13 07:55:34;;;;;;;4.07;3.63;;;7.40;58.90;;;;;;5102342;27;20443;-75
2023/11/13 07:57:59;;;;;;;4.63;3.80;;;7.50;59.40;;;;;;5096041;28;20080;-75
2023/11/13 08:00:25;;;;;;;4.13;3.78;;;7.50;58.10;;;;;;5107704;28;20383;-75
2023/11/13 08:02:51;;;;;;;5.13;4.07;;;7.60;58.50;;;;;;5093527;28;20070;-75
2023/11/13 08:05:17;;;;;;;4.43;3.90;;;7.70;57.60;;;;;;5111381;28;20027;-75
2023/11/13 08:07:44;;;;;;;3.90;3.55;;;7.80;53.60;;;;;;5080584;28;20456;-75
2023/11/13 08:10:13;;;;;;;4.40;3.80;;;7.80;48.80;;;;;;5074245;28;20035;-75
2023/11/13 08:12:45;;;;;;;5.20;4.32;;;7.90;51.40;;;;;;5075119;28;20055;-75
2023/11/13 08:15:15;;;;;;;6.50;4.13;;;7.90;50.50;;;;;;5109385;27;20022;-75
2023/11/13 08:17:44;;;;;;;4.82;4.40;;;8.00;45.20;;;;;;5095620;28;20024;-75
2023/11/13 08:20:14;;;;;;;4.15;3.75;;;8.00;49.50;;;;;;5113836;28;20421;-75
2023/11/13 08:22:46;;;;;;;4.32;3.92;;;8.10;50.60;;;;;;5100256;27;20064;-75
2023/11/13 08:25:11;;;;;;;4.32;4.00;;;8.20;38.10;;;;;;5129995;27;20160;-75
2023/11/13 08:27:41;;;;;;;5.47;4.10;;;8.20;36.00;;;;;;5102889;28;20488;-75
2023/11/13 08:30:08;;;;;;;6.15;3.92;;;8.20;40.30;;;;;;5115299;27;20019;-75
2023/11/13 08:32:37;;;;;;;4.80;4.20;;;8.20;37.90;;;;;;5122242;27;20008;-74
2023/11/13 08:35:11;;;;;;;5.03;4.53;;;8.30;41.70;;;;;;5104692;27;20019;-74
2023/11/13 08:37:38;;;;;;;4.78;4.47;;;8.30;55.20;;;;;;5099920;27;20057;-75
2023/11/13 08:40:05;;;;;;;8.18;5.20;;;8.30;46.90;;;;;;5122403;27;20027;-75
2023/11/13 08:42:30;;;;;;;6.57;5.97;;;8.30;58.80;;;;;;5105024;27;20027;-75
2023/11/13 08:44:56;;;;;;;7.28;6.57;;;8.40;71.30;;;;;;5097529;28;20038;-75
2023/11/13 08:47:22;;;;;;;8.35;6.18;;;8.50;69.60;;;;;;5116898;27;20076;-75
2023/11/13 08:49:48;;;;;;;8.75;6.07;;;8.50;64.50;;;;;;5117604;27;20084;-75
2023/11/13 08:52:14;;;;;;;7.90;7.07;;;8.60;80.80;;;;;;5099348;28;20448;-75
2023/11/13 08:54:39;;;;;;;11.65;7.50;;;8.60;89.50;;;;;;5101656;27;20066;-75
2023/11/13 08:57:10;;;;;;;7.90;6.97;;;8.70;95.50;;;;;;5099283;28;20050;-75
2023/11/13 08:59:38;;;;;;;8.02;7.05;;;8.70;87.70;;;;;;5101206;28;20031;-75
2023/11/13 09:02:07;;;;;;;11.43;7.22;;;8.80;73.50;;;;;;5099237;28;20036;-75
2023/11/13 09:04:34;;;;;;;10.38;7.22;;;8.80;57.60;;;;;;5102064;27;20344;-75
2023/11/13 09:07:11;;;;;;;10.63;7.40;;;8.90;53.00;;;;;;5099113;28;20122;-75
2023/11/13 09:09:39;;;;;;;10.30;6.93;;;9.10;46.00;;;;;;5117144;28;20080;-75
2023/11/13 09:12:05;;;;;;;8.52;6.22;;;9.10;21.00;;;;;;5113358;28;20114;-75
2023/11/13 09:14:32;;;;;;;8.32;6.10;;;9.20;9.80;;;;;;5101393;28;20030;-75
2023/11/13 09:17:09;;;;;;;7.38;6.57;;;9.30;2.10;;;;;;5098864;28;20015;-75
2023/11/13 09:19:40;;;;;;;9.70;6.55;;;9.30;5.80;;;;;;5088858;28;20026;-75
2023/11/13 09:22:12;;;;;;;7.93;6.47;;;9.30;1.00;;;;;;5116618;28;20019;-75
2023/11/13 09:24:38;;;;;;;9.45;6.15;;;9.30;7.20;;;;;;5098335;28;20027;-75
2023/11/13 09:27:09;;;;;;;7.25;6.55;;;9.30;14.80;;;;;;5099342;28;20039;-75
2023/11/13 09:29:40;;;;;;;7.88;6.45;;;9.30;5.30;;;;;;5120196;28;20069;-74
2023/11/13 09:32:08;;;;;;;7.35;6.32;;;9.40;11.80;;;;;;5116688;28;20028;-75
2023/11/13 09:34:35;;;;;;;7.00;5.95;;;9.30;3.10;;;;;;5100917;28;20070;-75
2023/11/13 09:37:05;;;;;;;7.90;6.50;;;9.40;1.00;;;;;;5118807;28;20122;-75
2023/11/13 09:39:32;;;;;;;11.30;7.32;;;9.40;5.40;;;;;;5116566;28;20444;-75
2023/11/13 09:42:04;;;;;;;11.00;6.55;;;9.40;1.00;;;;;;5101773;28;20046;-75
2023/11/13 09:44:31;;;;;;;10.82;6.90;;;9.50;1.00;;;;;;5119109;28;20055;-75
2023/11/13 09:46:59;;;;;;;14.13;7.10;;;9.40;1.00;;;;;;5102218;28;20031;-75
2023/11/13 09:49:30;;;;;;;7.22;6.63;;;9.40;1.00;;;;;;5113108;28;20487;-75
2023/11/13 09:52:02;;;;;;;10.68;6.80;;;9.40;1.00;;;;;;5118542;28;20122;-75
2023/11/13 09:54:30;;;;;;;11.27;6.37;;;9.50;1.00;;;;;;5120173;27;20247;-75
2023/11/13 09:57:00;;;;;;;10.13;7.30;;;9.60;1.00;;;;;;5121023;27;20245;-75
2023/11/13 09:59:33;;;;;;;9.55;6.65;;;9.60;1.00;;;;;;5121875;27;20027;-75
2023/11/13 10:02:00;;;;;;;7.22;6.55;;;9.70;1.00;;;;;;5120778;27;20019;-75
2023/11/13 10:04:28;;;;;;;10.63;6.85;;;9.70;1.00;;;;;;5119978;27;20534;-75
2023/11/13 10:06:54;;;;;;;7.45;6.35;;;9.80;1.00;;;;;;5121387;27;20042;-75
2023/11/13 10:09:26;;;;;;;14.18;6.85;;;9.80;1.00;;;;;;5123605;27;20080;-75
2023/11/13 10:11:52;;;;;;;7.78;6.15;;;9.90;1.00;;;;;;5099717;27;20499;-75
2023/11/13 10:14:18;;;;;;;8.00;6.88;;;9.90;1.00;;;;;;5121794;27;20085;-75
2023/11/13 10:16:56;;;;;;;7.03;6.15;;;10.00;1.00;;;;;;5122509;27;20023;-75
2023/11/13 10:19:22;;;;;;;12.35;6.75;;;10.00;1.00;;;;;;5119596;27;20108;-75
2023/11/13 10:21:48;;;;;;;7.75;6.63;;;10.00;1.00;;;;;;5106470;27;20023;-75
2023/11/13 10:24:22;;;;;;;9.23;7.43;;;10.00;1.00;;;;;;5107646;27;20428;-75
2023/11/13 10:26:57;;;;;;;9.00;8.10;;;10.10;1.00;;;;;;5120874;27;20020;-75
2023/11/13 10:29:27;;;;;;;8.75;7.85;;;10.20;1.00;;;;;;5103607;27;20030;-75
2023/11/13 10:32:03;;;;;;;13.90;8.02;;;10.20;1.00;;;;;;5119847;27;20023;-76
2023/11/13 10:34:45;;;;;;;7.70;6.80;;;10.30;1.00;;;;;;5123987;27;20364;-75
2023/11/13 10:37:11;;;;;;;;;;;10.40;1.00;;;;;;5123166;27;20117;-75
2023/11/13 10:39:42;;;;;;;8.82;7.80;;;10.40;1.00;;;;;;5123890;27;19957;-75
2023/11/13 10:42:22;;;;;;;8.70;7.85;;;10.50;1.00;;;;;;5101073;27;20033;-75
2023/11/13 10:44:50;;;;;;;12.23;8.60;;;10.60;1.00;;;;;;5122859;27;20156;-75
2023/11/13 10:47:24;;;;;;;10.48;9.07;;;10.60;1.00;;;;;;5121841;27;20539;-75
2023/11/13 10:49:52;;;;;;;15.70;9.75;;;10.70;1.00;;;;;;5101974;27;20114;-75
2023/11/13 10:52:21;;;;;;;9.70;8.35;;;10.70;1.00;;;;;;5103226;27;20063;-75
2023/11/13 10:54:48;;;;;;;9.85;8.85;;;10.80;1.00;;;;;;5120116;27;20027;-77
2023/11/13 10:57:15;;;;;;;10.52;8.85;;;10.90;4.80;;;;;;5121579;27;20023;-75
2023/11/13 10:59:41;;;;;;;11.60;8.73;;;10.90;1.00;;;;;;5103564;27;20023;-75
2023/11/13 11:02:21;;;;;;;15.23;9.30;;;10.90;1.00;;;;;;5101142;27;20030;-75
2023/11/13 11:04:57;;;;;;;10.95;8.52;;;10.90;1.00;;;;;;5101612;27;20035;-75
2023/11/13 11:07:27;;;;;;;14.23;9.00;;;10.90;1.00;;;;;;5095199;27;20024;-74
2023/11/13 11:09:59;;;;;;;9.85;8.85;;;10.90;1.00;;;;;;5102441;27;20035;-74
2023/11/13 11:12:31;;;;;;;11.88;9.25;;;10.90;1.00;;;;;;5103739;27;20023;-74
2023/11/13 11:15:17;;;;;;;11.80;9.55;;;10.90;1.00;;;;;;5119775;27;20016;-73
2023/11/13 11:17:58;;;;;;;11.05;9.90;;;10.90;1.00;;;;;;5097237;27;20054;-77
2023/11/13 11:20:37;;;;;;;10.43;9.38;;;10.90;1.00;;;;;;5118226;27;20429;-77
2023/11/13 11:23:07;;;;;;;11.02;9.93;;;10.90;1.00;;;;;;5122803;27;20028;-73
2023/11/13 11:25:47;;;;;;;13.30;10.27;;;10.90;1.00;;;;;;5114559;27;20019;-74
2023/11/13 11:28:38;;;;;;;16.27;11.25;;;10.90;1.00;;;;;;5122354;27;20067;-77
2023/11/13 11:31:33;;;;;;;12.43;10.15;;;11.00;1.00;;;;;;5121360;27;20023;-76
2023/11/13 11:34:00;;;;;;;13.05;9.98;;;11.00;1.00;;;;;;5105996;27;20031;-77
2023/11/13 11:36:33;;;;;;;12.10;9.57;;;11.10;1.00;;;;;;5105364;27;20479;-77
2023/11/13 11:39:18;;;;;;;14.35;10.52;;;11.10;1.00;;;;;;5103556;28;20126;-77
2023/11/13 11:41:46;;;;;;;11.80;10.50;;;11.10;1.00;;;;;;5103758;28;20024;-77
2023/11/13 11:44:16;;;;;;;12.30;10.50;;;11.10;1.00;;;;;;5118310;27;20023;-77
2023/11/13 11:46:46;;;;;;;13.32;11.13;;;11.20;1.00;;;;;;5108212;27;20123;-77
2023/11/13 11:49:26;;;;;;;16.95;11.00;;;11.20;1.00;;;;;;5106284;27;20023;-77
2023/11/13 11:52:08;;;;;;;18.10;12.10;;;11.30;1.00;;;;;;5121649;27;20069;-74
2023/11/13 11:54:35;;;;;;;14.20;11.32;;;11.30;1.00;;;;;;5086011;27;20111;-74
2023/11/13 11:57:07;;;;;;;13.95;11.00;;;11.30;1.00;;;;;;5122956;27;20023;-74
2023/11/13 11:59:34;;;;;;;13.43;10.57;;;11.40;1.00;;;;;;5122913;27;20032;-77
2023/11/13 12:02:03;;;;;;;12.93;10.85;;;11.40;1.00;;;;;;5105494;27;20031;-74
2023/11/13 12:04:32;;;;;;;12.52;11.30;;;11.50;1.00;;;;;;5120860;27;20025;-74
2023/11/13 12:07:08;;;;;;;12.55;10.00;;;11.50;1.00;;;;;;5106232;27;20045;-74
2023/11/13 12:09:36;;;;;;;13.75;11.52;;;11.50;1.00;;;;;;5111575;27;20030;-77
2023/11/13 12:12:03;;;;;;;12.45;11.15;;;11.50;1.00;;;;;;5095297;28;20027;-74
2023/11/13 12:14:28;;;;;;;15.07;10.43;;;11.40;1.00;;;;;;5099359;27;20370;-74
2023/11/13 12:16:54;;;;;;;14.52;11.13;;;11.40;1.00;;;;;;5114703;27;20025;-74
2023/11/13 12:19:20;;;;;;;12.75;10.85;;;11.40;1.00;;;;;;5119116;27;20051;-73
2023/11/13 12:21:46;;;;;;;13.77;11.45;;;11.40;1.00;;;;;;5101811;27;20027;-74
2023/11/13 12:24:16;;;;;;;13.85;11.27;;;11.30;1.00;;;;;;5117713;27;20027;-74
2023/11/13 12:26:46;;;;;;;12.98;10.90;;;11.40;1.00;;;;;;5114591;27;20012;-74
2023/11/13 12:29:17;;;;;;;12.85;10.95;;;11.40;1.00;;;;;;5102956;28;20038;-77
2023/11/13 12:31:44;;;;;;;12.27;10.68;;;11.40;1.00;;;;;;5123938;27;20027;-77
2023/11/13 12:34:14;;;;;;;13.40;11.45;;;11.40;1.00;;;;;;5123576;27;20034;-74
2023/11/13 12:36:42;;;;;;;13.98;11.77;;;11.50;1.00;;;;;;5122818;27;20060;-77
2023/11/13 12:39:14;;;;;;;15.45;11.10;;;11.50;1.00;;;;;;5121042;27;20020;-74
2023/11/13 12:41:40;;;;;;;;;;;11.60;1.00;;;;;;5115982;27;20119;-77
2023/11/13 12:44:07;;;;;;;12.65;10.50;;;11.60;1.00;;;;;;5122350;27;20338;-74
2023/11/13 12:46:33;;;;;;;14.57;11.30;;;11.60;1.00;;;;;;5101729;28;20390;-74
2023/11/13 12:49:00;;;;;;;13.70;11.18;;;11.60;1.00;;;;;;5105411;27;20031;-74
2023/11/13 12:51:29;;;;;;;13.90;12.15;;;11.60;1.00;;;;;;5121051;27;20024;-74
2023/11/13 12:53:57;;;;;;;12.18;10.95;;;11.60;1.00;;;;;;5122007;27;20019;-75
2023/11/13 12:56:23;;;;;;;14.40;12.80;;;11.60;1.00;;;;;;5123843;27;20056;-74
2023/11/13 12:58:50;;;;;;;15.50;11.80;;;11.60;1.00;;;;;;5120610;27;20020;-74